Time;durP1;ratioP1;P1;durP2;ratioP2;P2;SDS_P1;SDS_P2;PMS_P1;PMS_P2;Temp;Humidity;BMP_temperature;BMP_pressure;BME280_temperature;BME280_humidity;BME280_pressure;Samples;Min_cycle;Max_cycle;Signal;HPM_P1;HPM_P2
2022/11/08 00:02:03;;;;;;;7.53;4.40;;;;;;;8.66;nan;98086.13;5055074;28;20267;-71
2022/11/08 00:04:29;;;;;;;6.03;4.40;;;;;;;8.70;nan;98090.00;5055550;28;20205;-71
2022/11/08 00:15:08;;;;;;;9.00;4.13;;;;;;;8.72;nan;98093.25;5055178;28;20177;-72
2022/11/08 00:17:34;;;;;;;6.93;4.67;;;;;;;8.68;nan;98079.63;5055236;28;20206;-72
2022/11/08 00:20:01;;;;;;;6.10;4.50;;;;;;;8.55;nan;98084.13;5055096;28;20204;-71
2022/11/08 00:22:30;;;;;;;6.17;4.40;;;;;;;8.48;nan;98088.59;5054501;28;20252;-71
2022/11/08 00:24:57;;;;;;;9.60;5.00;;;;;;;8.41;nan;98080.66;5055034;28;20208;-72
2022/11/08 00:27:24;;;;;;;6.80;4.37;;;;;;;8.52;nan;98073.94;5054679;28;20208;-71
2022/11/08 00:29:51;;;;;;;7.07;4.37;;;;;;;8.57;nan;98076.78;5054619;28;20233;-72
2022/11/08 00:32:20;;;;;;;6.03;4.37;;;;;;;8.49;nan;98077.81;5054355;28;20568;-71
2022/11/08 00:34:47;;;;;;;8.20;5.03;;;;;;;8.47;nan;98068.44;5054627;28;20219;-71
2022/11/08 00:37:14;;;;;;;5.23;4.63;;;;;;;8.40;nan;98079.03;5054866;28;20717;-71
2022/11/08 00:39:40;;;;;;;5.83;4.80;;;;;;;8.32;nan;98081.88;5054603;28;20233;-71
2022/11/08 00:42:07;;;;;;;5.33;4.57;;;;;;;8.42;nan;98070.88;5054466;28;20325;-71
2022/11/08 00:44:34;;;;;;;6.53;4.67;;;;;;;8.33;nan;98070.25;5054433;28;20211;-72
2022/11/08 00:47:00;;;;;;;8.27;4.57;;;;;;;8.29;nan;98071.69;5054486;28;20209;-71
2022/11/08 00:49:26;;;;;;;6.03;4.50;;;;;;;8.20;nan;98074.72;5054399;28;20201;-72
2022/11/08 00:51:53;;;;;;;7.13;4.43;;;;;;;8.18;nan;98068.81;5053908;28;20232;-71
2022/11/08 00:54:20;;;;;;;6.93;4.20;;;;;;;8.15;nan;98064.72;5054018;28;20228;-71
2022/11/08 00:56:48;;;;;;;6.10;4.50;;;;;;;8.09;nan;98070.84;5055124;28;20216;-71
2022/11/08 00:59:17;;;;;;;7.07;5.00;;;;;;;8.03;nan;98066.38;5054664;28;20231;-71
2022/11/08 01:01:45;;;;;;;6.67;4.30;;;;;;;7.96;nan;98060.25;5054915;28;20231;-71
2022/11/08 01:04:13;;;;;;;5.90;4.43;;;;;;;7.93;nan;98060.66;5053822;28;20215;-71
2022/11/08 01:06:40;;;;;;;7.20;4.97;;;;;;;7.89;nan;98059.44;5054818;28;20209;-71
2022/11/08 01:09:07;;;;;;;5.93;4.60;;;;;;;7.90;nan;98050.47;5053727;28;20223;-71
2022/11/08 01:11:34;;;;;;;7.57;5.27;;;;;;;7.92;nan;98050.28;5053588;28;20235;-71
2022/11/08 01:14:01;;;;;;;8.83;5.03;;;;;;;7.86;nan;98054.53;5053989;28;20208;-71
2022/11/08 01:16:30;;;;;;;10.17;5.70;;;;;;;7.87;nan;98045.56;5053927;28;20215;-71
2022/11/08 01:18:58;;;;;;;6.70;5.03;;;;;;;7.83;nan;98048.84;5054111;28;20212;-71
2022/11/08 01:21:25;;;;;;;7.43;4.93;;;;;;;7.82;nan;98042.72;5053396;28;20233;-72
2022/11/08 01:23:53;;;;;;;5.93;4.97;;;;;;;7.75;nan;98041.91;5053508;28;20196;-71
2022/11/08 01:26:28;;;;;;;6.60;5.40;;;;;;;7.78;nan;98038.03;5053803;28;20255;-71
2022/11/08 01:28:56;;;;;;;8.53;5.30;;;;;;;7.75;nan;98036.63;5053700;28;20202;-71
2022/11/08 01:31:25;;;;;;;6.90;5.27;;;;;;;7.85;nan;98036.19;5053253;28;20229;-71
2022/11/08 01:33:52;;;;;;;8.67;5.03;;;;;;;7.77;nan;98041.69;5053666;28;20202;-71
2022/11/08 01:36:21;;;;;;;7.57;5.07;;;;;;;7.79;nan;98040.47;5053623;28;20205;-71
2022/11/08 01:38:48;;;;;;;7.67;5.30;;;;;;;7.75;nan;98039.25;5053236;28;20211;-71
2022/11/08 01:41:16;;;;;;;8.47;5.00;;;;;;;7.73;nan;98041.28;5053466;28;20221;-71
2022/11/08 01:43:47;;;;;;;7.60;5.60;;;;;;;7.64;nan;98034.53;5053216;28;20211;-71
2022/11/08 01:46:35;;;;;;;5.33;4.83;;;;;;;7.61;nan;98026.19;5053523;28;20212;-71
2022/11/08 01:49:21;;;;;;;8.20;4.97;;;;;;;7.54;nan;98017.44;5053215;28;20209;-71
2022/11/08 01:52:06;;;;;;;6.27;5.17;;;;;;;7.49;nan;98017.22;5053388;28;20235;-71
2022/11/08 01:54:47;;;;;;;7.80;5.20;;;;;;;7.49;nan;98009.28;5053188;28;20189;-71
2022/11/08 01:57:18;;;;;;;7.97;5.67;;;;;;;7.43;nan;98005.59;5053986;28;20189;-71
2022/11/08 01:59:47;;;;;;;7.93;5.70;;;;;;;7.36;nan;98001.31;5053460;28;20196;-72
2022/11/08 02:02:14;;;;;;;8.60;6.43;;;;;;;7.29;nan;97992.56;5053318;28;20231;-71
2022/11/08 02:04:42;;;;;;;8.13;6.27;;;;;;;7.39;nan;97996.47;5053365;28;20212;-71
2022/11/08 02:07:12;;;;;;;8.83;5.50;;;;;;;7.38;nan;97988.72;5053604;28;20235;-71
2022/11/08 02:09:41;;;;;;;7.87;6.13;;;;;;;7.36;nan;97982.78;5053011;28;20673;-71
2022/11/08 02:12:09;;;;;;;8.77;6.13;;;;;;;7.31;nan;97985.22;5053157;28;20239;-71
2022/11/08 02:14:37;;;;;;;7.50;5.80;;;;;;;7.25;nan;97983.41;5052964;28;20205;-71
2022/11/08 02:17:04;;;;;;;8.23;5.90;;;;;;;7.26;nan;97977.91;5053434;28;20215;-71
2022/11/08 02:19:43;;;;;;;8.30;5.73;;;;;;;7.31;nan;97979.94;5053674;28;20211;-71
2022/11/08 02:22:31;;;;;;;8.70;6.03;;;;;;;7.19;nan;97976.28;5056954;28;20239;-71
2022/11/08 02:24:59;;;;;;;7.90;6.30;;;;;;;7.17;nan;97973.81;5055675;28;20684;-71
2022/11/08 02:27:25;;;;;;;10.17;6.30;;;;;;;7.21;nan;97971.59;5057112;28;20236;-71
2022/11/08 02:29:55;;;;;;;6.83;6.13;;;;;;;7.18;nan;97969.31;5056984;28;20208;-72
2022/11/08 02:32:23;;;;;;;7.53;5.70;;;;;;;7.19;nan;97968.34;5056724;28;20196;-71
2022/11/08 02:34:58;;;;;;;6.20;5.60;;;;;;;7.19;nan;97963.84;5056895;28;20235;-71
2022/11/08 02:37:26;;;;;;;7.37;5.73;;;;;;;7.17;nan;97955.31;5056636;28;20201;-72
2022/11/08 02:39:52;;;;;;;6.20;5.47;;;;;;;7.19;nan;97955.91;5056488;28;20208;-72
2022/11/08 02:42:20;;;;;;;8.03;6.20;;;;;;;7.21;nan;97950.44;5056560;28;20208;-71
2022/11/08 02:44:47;;;;;;;8.40;6.20;;;;;;;7.21;nan;97953.91;5056774;28;20205;-71
2022/11/08 02:47:13;;;;;;;10.07;7.10;;;;;;;7.15;nan;97946.75;5056760;28;20206;-71
2022/11/08 02:49:40;;;;;;;9.70;5.93;;;;;;;7.12;nan;97949.81;5056611;28;20205;-71
2022/11/08 02:52:07;;;;;;;8.10;5.77;;;;;;;7.16;nan;97952.88;5056482;28;20236;-71
2022/11/08 02:54:33;;;;;;;11.67;6.53;;;;;;;7.14;nan;97941.66;5056323;28;20664;-71
2022/11/08 02:57:00;;;;;;;9.33;6.23;;;;;;;7.10;nan;97938.59;5056558;28;20212;-71
2022/11/08 02:59:26;;;;;;;9.27;6.23;;;;;;;7.04;nan;97933.31;5056519;28;20205;-71
2022/11/08 03:01:53;;;;;;;8.33;6.60;;;;;;;7.09;nan;97939.63;5056412;28;20225;-71
2022/11/08 03:04:19;;;;;;;9.60;6.13;;;;;;;7.08;nan;97937.19;5056390;28;20209;-71
2022/11/08 03:06:45;;;;;;;7.73;5.60;;;;;;;7.12;nan;97936.59;5056382;28;20208;-71
2022/11/08 03:09:12;;;;;;;7.03;5.83;;;;;;;7.07;nan;97924.97;5056340;28;20209;-71
2022/11/08 03:11:39;;;;;;;8.00;6.20;;;;;;;7.09;nan;97934.34;5055862;28;20746;-70
2022/11/08 03:14:05;;;;;;;7.97;5.47;;;;;;;7.03;nan;97936.97;5056314;28;20205;-71
2022/11/08 03:16:31;;;;;;;9.40;5.63;;;;;;;6.99;nan;97930.44;5056216;28;20205;-71
2022/11/08 03:18:58;;;;;;;6.80;5.70;;;;;;;6.96;nan;97929.03;5055896;28;20208;-71
2022/11/08 03:21:24;;;;;;;6.63;5.50;;;;;;;6.95;nan;97931.84;5055991;28;20236;-71
2022/11/08 03:23:50;;;;;;;7.93;5.77;;;;;;;6.94;nan;97930.22;5055815;28;20190;-71
2022/11/08 03:26:17;;;;;;;6.53;5.37;;;;;;;6.92;nan;97933.06;5056056;28;20205;-71
2022/11/08 03:28:43;;;;;;;8.37;5.03;;;;;;;6.90;nan;97929.00;5055906;28;20209;-71
2022/11/08 03:31:10;;;;;;;7.07;5.40;;;;;;;6.84;nan;97935.09;5055447;28;20233;-71
2022/11/08 03:33:36;;;;;;;6.13;5.53;;;;;;;6.86;nan;97930.41;5055064;28;20201;-71
2022/11/08 03:36:03;;;;;;;8.07;5.30;;;;;;;6.87;nan;97932.06;5055790;28;20296;-71
2022/11/08 03:38:29;;;;;;;6.63;5.60;;;;;;;6.90;nan;97937.75;5055768;28;20212;-71
2022/11/08 03:40:55;;;;;;;7.20;4.90;;;;;;;6.83;nan;97933.47;5055358;28;20232;-71
2022/11/08 03:43:22;;;;;;;6.30;5.20;;;;;;;6.78;nan;97931.41;5055690;28;20207;-71
2022/11/08 03:45:48;;;;;;;8.20;5.40;;;;;;;6.72;nan;97931.38;5055620;28;20205;-71
2022/11/08 03:48:14;;;;;;;6.77;5.53;;;;;;;6.77;nan;97935.06;5055470;28;20211;-71
2022/11/08 03:50:41;;;;;;;8.17;5.03;;;;;;;6.80;nan;97933.84;5055014;28;20222;-71
2022/11/08 03:53:07;;;;;;;6.57;5.20;;;;;;;6.76;nan;97935.25;5055481;28;20258;-71
2022/11/08 03:55:33;;;;;;;7.63;5.30;;;;;;;6.76;nan;97927.31;5055428;28;20205;-71
2022/11/08 03:58:00;;;;;;;5.70;4.70;;;;;;;6.76;nan;97922.03;5055661;28;20232;-71
2022/11/08 04:00:28;;;;;;;9.13;5.17;;;;;;;6.75;nan;97931.78;5055087;28;20235;-69
2022/11/08 04:03:00;;;;;;;6.30;5.30;;;;;;;6.80;nan;97933.84;5055029;28;20202;-69
2022/11/08 04:05:27;;;;;;;6.20;5.10;;;;;;;6.77;nan;97927.13;5054757;28;20239;-71
2022/11/08 04:07:53;;;;;;;7.43;5.10;;;;;;;6.66;nan;97925.03;5055209;28;20242;-71
2022/11/08 04:10:20;;;;;;;8.73;4.90;;;;;;;6.65;nan;97930.53;5055111;28;20221;-71
2022/11/08 04:15:31;;;;;;;8.67;5.57;;;;;;;6.69;nan;97924.66;5055133;28;20266;-71
2022/11/08 04:23:29;;;;;;;6.83;4.80;;;;;;;6.70;nan;97922.84;5054569;28;20203;-71
2022/11/08 04:25:58;;;;;;;10.10;4.90;;;;;;;6.71;nan;97920.00;5055015;28;20296;-71
2022/11/08 04:28:30;;;;;;;6.60;4.77;;;;;;;6.67;nan;97915.31;5054733;28;20232;-71
2022/11/08 04:30:59;;;;;;;6.03;4.33;;;;;;;6.71;nan;97917.38;5054541;28;20329;-69
2022/11/08 04:33:26;;;;;;;5.00;4.00;;;;;;;6.66;nan;97917.13;5054584;28;20209;-70
2022/11/08 04:35:53;;;;;;;6.80;4.20;;;;;;;6.61;nan;97913.47;5054477;28;20216;-71
2022/11/08 04:38:20;;;;;;;7.90;5.20;;;;;;;6.74;nan;97908.22;5054466;28;20209;-71
2022/11/08 04:40:47;;;;;;;8.50;5.47;;;;;;;6.74;nan;97908.22;5054348;28;20229;-71
2022/11/08 04:43:13;;;;;;;7.87;5.33;;;;;;;6.76;nan;97911.47;5053742;28;20568;-71
2022/11/08 04:45:39;;;;;;;8.23;5.27;;;;;;;6.81;nan;97904.59;5054038;28;20209;-71
2022/11/08 04:48:06;;;;;;;8.70;5.73;;;;;;;6.71;nan;97898.06;5054230;28;20216;-71
2022/11/08 04:50:32;;;;;;;8.97;5.90;;;;;;;6.65;nan;97896.22;5053816;28;20229;-71
2022/11/08 04:52:59;;;;;;;9.30;5.73;;;;;;;6.62;nan;97886.03;5053973;28;20216;-71
2022/11/08 04:55:25;;;;;;;13.07;6.73;;;;;;;6.60;nan;97888.06;5054181;28;20232;-71
2022/11/08 04:57:52;;;;;;;8.73;5.97;;;;;;;6.53;nan;97880.13;5054017;28;20209;-71
2022/11/08 05:00:18;;;;;;;9.97;5.53;;;;;;;6.43;nan;97878.84;5053385;28;20225;-71
2022/11/08 05:02:44;;;;;;;7.67;5.87;;;;;;;6.36;nan;97875.34;5053417;28;20202;-71
2022/11/08 05:05:11;;;;;;;8.90;6.00;;;;;;;6.37;nan;97871.69;5053519;28;20227;-71
2022/11/08 05:07:37;;;;;;;6.83;5.93;;;;;;;6.33;nan;97878.41;5053601;28;20209;-71
2022/11/08 05:10:04;;;;;;;7.97;6.00;;;;;;;6.32;nan;97871.47;5053375;28;20205;-71
2022/11/08 05:12:30;;;;;;;11.00;6.30;;;;;;;6.30;nan;97861.13;5053388;28;20707;-71
2022/11/08 05:14:57;;;;;;;7.90;5.87;;;;;;;6.28;nan;97871.06;5053778;28;20215;-71
2022/11/08 05:17:23;;;;;;;8.07;5.87;;;;;;;6.14;nan;97865.91;5053590;28;20208;-71
2022/11/08 05:25:17;;;;;;;10.03;5.20;;;;;;;6.21;nan;97879.97;5053373;28;20247;-71
2022/11/08 05:27:43;;;;;;;9.87;5.63;;;;;;;6.22;nan;97871.84;5053477;28;20205;-71
2022/11/08 05:30:10;;;;;;;6.87;5.30;;;;;;;6.20;nan;97873.88;5053282;28;20215;-71
2022/11/08 05:32:36;;;;;;;6.93;4.77;;;;;;;6.41;nan;97871.13;5052943;28;20691;-71
2022/11/08 05:35:03;;;;;;;6.50;5.23;;;;;;;6.32;nan;97868.84;5053322;28;20542;-71
2022/11/08 05:37:29;;;;;;;7.57;5.10;;;;;;;6.39;nan;97870.53;5053204;28;20204;-71
2022/11/08 05:39:56;;;;;;;6.77;4.67;;;;;;;6.46;nan;97871.34;5053216;28;20212;-72
2022/11/08 05:42:22;;;;;;;8.10;4.67;;;;;;;6.43;nan;97868.28;5052874;28;20208;-71
2022/11/08 05:44:48;;;;;;;6.70;5.00;;;;;;;6.40;nan;97868.69;5053208;28;20228;-71
2022/11/08 05:47:15;;;;;;;5.90;4.73;;;;;;;6.46;nan;97858.13;5052748;28;20201;-71
2022/11/08 05:49:41;;;;;;;7.13;4.37;;;;;;;6.44;nan;97865.47;5052942;28;20215;-71
2022/11/08 05:52:07;;;;;;;7.90;4.90;;;;;;;6.48;nan;97860.59;5052648;28;20233;-71
2022/11/08 05:54:34;;;;;;;7.33;4.80;;;;;;;6.46;nan;97862.59;5052330;28;20205;-71
2022/11/08 05:57:00;;;;;;;8.00;4.77;;;;;;;6.37;nan;97867.25;5052560;28;20683;-71
2022/11/08 05:59:26;;;;;;;7.57;4.73;;;;;;;6.39;nan;97867.88;5052791;28;20204;-71
2022/11/08 06:01:53;;;;;;;5.43;4.37;;;;;;;6.39;nan;97870.53;5052857;28;20221;-71
2022/11/08 06:04:19;;;;;;;8.87;5.50;;;;;;;6.42;nan;97861.38;5052480;28;20204;-71
2022/11/08 06:06:45;;;;;;;6.20;4.77;;;;;;;6.40;nan;97863.41;5052619;28;20205;-71
2022/11/08 06:09:12;;;;;;;6.97;5.00;;;;;;;6.45;nan;97866.25;5052296;28;20209;-71
2022/11/08 06:11:38;;;;;;;6.50;4.53;;;;;;;6.38;nan;97860.94;5052073;28;20232;-71
2022/11/08 06:14:05;;;;;;;7.80;5.07;;;;;;;6.40;nan;97858.13;5052565;28;20574;-71
2022/11/08 06:16:31;;;;;;;10.63;4.90;;;;;;;6.39;nan;97867.06;5052082;28;20701;-71
2022/11/08 06:18:58;;;;;;;7.87;4.70;;;;;;;6.42;nan;97859.53;5052528;28;20201;-72
2022/11/08 06:21:26;;;;;;;9.20;5.10;;;;;;;6.40;nan;97858.13;5052193;28;20240;-71
2022/11/08 06:23:53;;;;;;;9.37;5.17;;;;;;;6.40;nan;97852.84;5052290;28;20713;-71
2022/11/08 06:26:21;;;;;;;6.97;5.13;;;;;;;6.40;nan;97850.19;5052215;28;20232;-71
2022/11/08 06:28:47;;;;;;;6.90;4.97;;;;;;;6.51;nan;97850.44;5052198;28;20512;-71
2022/11/08 06:31:13;;;;;;;7.30;5.13;;;;;;;6.40;nan;97852.84;5051343;28;20232;-71
2022/11/08 06:33:40;;;;;;;7.33;5.40;;;;;;;6.47;nan;97851.84;5051965;28;20205;-71
2022/11/08 06:36:07;;;;;;;7.03;5.00;;;;;;;6.37;nan;97853.22;5051702;28;20521;-71
2022/11/08 06:38:33;;;;;;;5.93;4.80;;;;;;;6.37;nan;97864.59;5051937;28;20666;-71
2022/11/08 06:41:01;;;;;;;5.40;4.47;;;;;;;6.38;nan;97865.44;5052427;28;20225;-71
2022/11/08 06:43:27;;;;;;;8.23;5.93;;;;;;;6.44;nan;97862.00;5052182;28;20205;-71
2022/11/08 06:45:54;;;;;;;7.23;4.90;;;;;;;6.45;nan;97863.63;5052272;28;20201;-71
2022/11/08 06:48:20;;;;;;;6.40;5.20;;;;;;;6.40;nan;97864.22;5052080;28;20548;-71
2022/11/08 06:50:47;;;;;;;7.10;5.07;;;;;;;6.40;nan;97858.94;5051910;28;20231;-71
2022/11/08 06:53:13;;;;;;;7.77;5.30;;;;;;;6.43;nan;97860.38;5051951;28;20229;-72
2022/11/08 06:55:40;;;;;;;6.97;4.47;;;;;;;6.60;nan;97859.00;5052036;28;20296;-71
2022/11/08 06:58:07;;;;;;;5.53;4.80;;;;;;;6.62;nan;97856.97;5052343;28;20209;-71
2022/11/08 07:00:34;;;;;;;6.83;4.67;;;;;;;6.65;nan;97862.66;5052377;28;20225;-71
2022/11/08 07:03:02;;;;;;;5.80;5.20;;;;;;;6.63;nan;97866.53;5051948;28;20205;-71
2022/11/08 07:05:31;;;;;;;5.23;4.70;;;;;;;6.67;nan;97851.91;5052724;28;20213;-71
2022/11/08 07:07:58;;;;;;;6.53;4.90;;;;;;;6.71;nan;97858.44;5055321;28;20215;-71
2022/11/08 07:10:27;;;;;;;6.50;4.47;;;;;;;6.71;nan;97858.44;5055563;28;20707;-71
2022/11/08 07:13:02;;;;;;;7.40;5.43;;;;;;;6.80;nan;97865.16;5055658;28;20221;-71
2022/11/08 07:15:29;;;;;;;6.60;4.67;;;;;;;6.70;nan;97864.72;5055970;28;20255;-73
2022/11/08 07:18:00;;;;;;;5.30;4.77;;;;;;;6.87;nan;97879.22;5055473;28;20201;-70
2022/11/08 07:20:27;;;;;;;7.37;4.23;;;;;;;6.91;nan;97877.78;5055535;28;20271;-70
2022/11/08 07:22:58;;;;;;;7.10;5.10;;;;;;;6.95;nan;97871.91;5055095;28;20209;-70
2022/11/08 07:25:25;;;;;;;4.90;4.40;;;;;;;7.12;nan;97882.91;5055104;28;20295;-71
2022/11/08 07:27:55;;;;;;;6.10;4.50;;;;;;;7.19;nan;97881.09;5053810;28;20232;-76
2022/11/08 07:30:21;;;;;;;5.10;4.57;;;;;;;7.30;nan;97880.47;5053140;28;20282;-76
2022/11/08 07:32:48;;;;;;;7.43;4.07;;;;;;;7.45;nan;97879.28;5053421;28;20248;-75
2022/11/08 07:35:14;;;;;;;3.83;3.33;;;;;;;7.51;nan;97891.66;5053187;28;20203;-73
2022/11/08 07:37:41;;;;;;;5.70;3.90;;;;;;;7.63;nan;97883.94;5053271;28;20201;-73
2022/11/08 07:40:08;;;;;;;6.17;3.80;;;;;;;7.72;nan;97883.53;5053291;28;20213;-73
2022/11/08 07:42:38;;;;;;;6.53;3.60;;;;;;;7.74;nan;97889.41;5053139;28;20672;-72
2022/11/08 07:45:06;;;;;;;10.37;4.37;;;;;;;7.72;nan;97885.34;5053225;28;20202;-72
2022/11/08 07:47:32;;;;;;;8.70;4.20;;;;;;;7.66;nan;97878.25;5054566;28;20215;-71
2022/11/08 07:49:58;;;;;;;8.23;4.43;;;;;;;7.61;nan;97880.69;5049761;28;20198;-72
2022/11/08 07:52:25;;;;;;;8.97;4.60;;;;;;;7.61;nan;97876.19;5034906;28;20222;-71
2022/11/08 07:54:51;;;;;;;9.00;4.27;;;;;;;7.51;nan;97869.72;5035213;28;20229;-71
2022/11/08 07:57:18;;;;;;;7.07;4.43;;;;;;;7.48;nan;97852.44;5034819;28;20209;-71
2022/11/08 07:59:44;;;;;;;9.17;4.83;;;;;;;7.39;nan;97835.13;5035047;28;20209;-72
2022/11/08 08:02:12;;;;;;;6.90;5.00;;;;;;;7.43;nan;97827.59;5034898;28;20224;-71
2022/11/08 08:04:38;;;;;;;7.77;4.80;;;;;;;7.44;nan;97837.16;5035371;28;20233;-72
2022/11/08 08:07:05;;;;;;;7.20;5.00;;;;;;;7.49;nan;97821.47;5034725;28;20205;-72
2022/11/08 08:09:33;;;;;;;6.93;5.20;;;;;;;7.62;nan;97829.41;5034627;28;20301;-71
2022/11/08 08:11:59;;;;;;;6.67;4.90;;;;;;;7.71;nan;97828.16;5034450;28;20331;-71
2022/11/08 08:14:26;;;;;;;9.73;5.47;;;;;;;7.87;nan;97831.19;5034913;28;20210;-72
2022/11/08 08:16:52;;;;;;;10.97;5.77;;;;;;;8.07;nan;97841.72;5034556;28;20212;-72
2022/11/08 08:19:19;;;;;;;12.07;6.10;;;;;;;8.17;nan;97848.22;5033898;28;20206;-72
2022/11/08 08:21:45;;;;;;;6.67;5.27;;;;;;;8.28;nan;97860.03;5034328;28;20244;-72
2022/11/08 08:24:12;;;;;;;7.50;5.70;;;;;;;8.64;nan;97858.44;5034463;28;20205;-72
2022/11/08 08:26:38;;;;;;;8.97;5.03;;;;;;;8.75;nan;97875.53;5034235;28;20564;-72
2022/11/08 08:29:04;;;;;;;9.43;5.30;;;;;;;8.63;nan;97866.59;5034388;28;20666;-72
2022/11/08 08:31:32;;;;;;;9.00;5.03;;;;;;;8.72;nan;97874.13;5034177;28;20249;-71
2022/11/08 08:33:58;;;;;;;9.20;4.83;;;;;;;8.93;nan;97870.31;5034464;28;20220;-71
2022/11/08 08:36:25;;;;;;;8.00;5.03;;;;;;;9.11;nan;97873.91;5034758;28;20202;-72
2022/11/08 08:38:51;;;;;;;6.57;5.40;;;;;;;9.47;nan;97870.56;5034543;28;20212;-72
2022/11/08 08:41:17;;;;;;;8.63;5.33;;;;;;;9.30;nan;97861.50;5034125;28;20233;-72
2022/11/08 08:43:44;;;;;;;6.03;3.97;;;;;;;9.80;nan;97858.66;5034245;28;20216;-72
2022/11/08 08:46:10;;;;;;;6.17;3.77;;;;;;;10.08;nan;97866.97;5034080;28;20210;-72
2022/11/08 08:48:37;;;;;;;4.80;3.33;;;;;;;10.28;nan;97870.22;5034318;28;20588;-72
2022/11/08 08:51:04;;;;;;;5.70;3.27;;;;;;;10.27;nan;97868.59;5034063;28;20573;-72
2022/11/08 08:53:31;;;;;;;6.40;3.20;;;;;;;10.38;nan;97873.19;5033985;28;20376;-72
2022/11/08 08:55:57;;;;;;;6.70;3.60;;;;;;;10.34;nan;97868.53;5034022;28;20212;-71
2022/11/08 08:58:23;;;;;;;3.77;3.00;;;;;;;10.37;nan;97876.84;5033836;28;20205;-72
2022/11/08 09:00:50;;;;;;;7.50;3.10;;;;;;;10.46;nan;97872.88;5033679;28;20594;-72
2022/11/08 09:03:16;;;;;;;4.40;2.60;;;;;;;10.36;nan;97869.94;5034008;28;20198;-72
2022/11/08 09:05:45;;;;;;;4.87;2.80;;;;;;;10.41;nan;97863.97;5034373;28;20304;-72
2022/11/08 09:08:13;;;;;;;4.93;3.40;;;;;;;10.45;nan;97876.56;5033614;28;20803;-72
2022/11/08 09:10:39;;;;;;;7.00;3.60;;;;;;;10.44;nan;97874.13;5033474;28;20787;-72
2022/11/08 09:13:06;;;;;;;4.87;3.33;;;;;;;10.40;nan;97875.59;5033855;28;20232;-72
2022/11/08 09:15:32;;;;;;;8.30;3.53;;;;;;;10.30;nan;97878.78;5033495;28;20218;-72
2022/11/08 09:17:59;;;;;;;5.53;3.53;;;;;;;10.27;nan;97875.78;5033494;28;20673;-71
2022/11/08 09:20:26;;;;;;;8.97;4.43;;;;;;;10.38;nan;97878.50;5033541;28;20226;-73
2022/11/08 09:22:52;;;;;;;6.87;3.93;;;;;;;10.49;nan;97879.59;5033573;28;20236;-72
2022/11/08 09:25:18;;;;;;;9.33;4.30;;;;;;;10.46;nan;97891.47;5033727;28;20209;-72
2022/11/08 09:27:45;;;;;;;7.70;4.37;;;;;;;10.40;nan;97888.88;5033576;28;20206;-73
2022/11/08 09:30:12;;;;;;;6.83;4.17;;;;;;;10.41;nan;97895.84;5033001;28;20234;-72
2022/11/08 09:32:38;;;;;;;9.23;4.50;;;;;;;10.34;nan;97893.25;5032942;28;20689;-72
2022/11/08 09:35:05;;;;;;;8.53;4.40;;;;;;;10.31;nan;97906.97;5033275;28;20214;-72
2022/11/08 09:37:31;;;;;;;7.97;5.00;;;;;;;10.31;nan;97895.53;5033840;28;20545;-72
2022/11/08 09:39:57;;;;;;;11.30;5.30;;;;;;;10.29;nan;97897.59;5033096;28;20212;-72
2022/11/08 09:42:39;;;;;;;9.40;5.00;;;;;;;10.16;nan;97892.44;5033407;28;20202;-72
2022/11/08 09:45:20;;;;;;;10.30;5.70;;;;;;;10.13;nan;97898.16;5033535;28;20194;-72
2022/11/08 09:47:51;;;;;;;11.90;5.07;;;;;;;10.13;nan;97892.84;5033361;28;20190;-72
2022/11/08 09:50:21;;;;;;;9.00;5.33;;;;;;;10.10;nan;97898.63;5033168;28;20237;-72
2022/11/08 09:53:14;;;;;;;9.80;5.07;;;;;;;10.12;nan;97897.38;5032785;28;20218;-72
2022/11/08 09:55:54;;;;;;;12.83;5.50;;;;;;;10.16;nan;97897.75;5033041;28;20190;-72
2022/11/08 09:59:00;;;;;;;11.23;5.13;;;;;;;10.29;nan;97897.59;5033047;28;20631;-72
2022/11/08 10:01:30;;;;;;;7.20;5.20;;;;;;;10.46;nan;97901.31;5033098;28;20229;-71
2022/11/08 10:04:00;;;;;;;7.33;4.20;;;;;;;10.56;nan;97893.63;5032869;28;20684;-72
2022/11/08 10:06:44;;;;;;;7.67;4.13;;;;;;;10.61;nan;97888.44;5032749;28;20297;-72
2022/11/08 10:09:43;;;;;;;7.93;4.27;;;;;;;10.68;nan;97891.84;5033164;28;20201;-72
2022/11/08 10:12:31;;;;;;;9.27;4.33;;;;;;;10.81;nan;97895.16;5032877;28;20336;-72
2022/11/08 10:15:14;;;;;;;6.77;4.10;;;;;;;10.94;nan;97889.66;5033223;28;20201;-72
2022/11/08 10:18:08;;;;;;;9.63;4.10;;;;;;;11.04;nan;97889.91;5033212;28;20196;-72
2022/11/08 10:20:59;;;;;;;4.93;3.63;;;;;;;11.04;nan;97897.09;5033061;28;20405;-72
2022/11/08 10:23:36;;;;;;;7.73;3.90;;;;;;;11.08;nan;97892.94;5033058;28;20190;-72
2022/11/08 10:26:12;;;;;;;6.83;4.07;;;;;;;11.13;nan;97890.44;5033151;28;20328;-72
2022/11/08 10:28:48;;;;;;;6.97;3.80;;;;;;;11.19;nan;97885.00;5032958;28;20247;-72
2022/11/08 10:31:16;;;;;;;6.07;4.10;;;;;;;11.22;nan;97882.94;5032992;28;20226;-72
2022/11/08 10:33:44;;;;;;;7.80;4.13;;;;;;;11.26;nan;97876.91;5033142;28;20263;-72
2022/11/08 10:36:18;;;;;;;4.70;3.50;;;;;;;11.31;nan;97881.56;5032599;28;20763;-72
2022/11/08 10:38:55;;;;;;;12.00;4.07;;;;;;;11.32;nan;97876.03;5032779;28;20279;-73
2022/11/08 10:41:30;;;;;;;7.60;4.13;;;;;;;11.28;nan;97873.00;5033229;28;20227;-72
2022/11/08 10:44:05;;;;;;;13.37;4.20;;;;;;;11.43;nan;97869.91;5037163;28;20293;-72
2022/11/08 10:46:44;;;;;;;5.77;3.97;;;;;;;11.41;nan;97872.00;5036694;28;20191;-72
2022/11/08 10:49:23;;;;;;;9.07;4.77;;;;;;;11.44;nan;97873.38;5036864;28;20210;-72
2022/11/08 10:51:52;;;;;;;7.63;4.30;;;;;;;11.50;nan;97869.81;5036573;28;20223;-72
2022/11/08 10:54:41;;;;;;;10.67;4.30;;;;;;;11.66;nan;97866.50;5036575;28;20235;-72
2022/11/08 10:57:08;;;;;;;9.00;4.40;;;;;;;11.76;nan;97864.09;5036221;28;20240;-73
2022/11/08 10:59:34;;;;;;;8.37;4.07;;;;;;;11.86;nan;97872.31;5035900;28;20710;-73
2022/11/08 11:02:01;;;;;;;6.83;4.20;;;;;;;11.99;nan;97872.09;5035678;28;20233;-73
2022/11/08 11:04:31;;;;;;;5.00;3.53;;;;;;;12.17;nan;97853.31;5035623;28;20537;-72
2022/11/08 11:07:25;;;;;;;6.53;3.20;;;;;;;12.57;nan;97851.50;5035926;28;20208;-74
2022/11/08 11:09:51;;;;;;;7.17;3.23;;;;;;;12.77;nan;97842.03;5035820;28;20193;-76
2022/11/08 11:12:18;;;;;;;4.23;2.90;;;;;;;12.73;nan;97851.56;5035763;28;20215;-71
2022/11/08 11:14:45;;;;;;;6.43;3.73;;;;;;;13.02;nan;97842.53;5035774;28;20668;-71
2022/11/08 11:17:16;;;;;;;6.77;3.40;;;;;;;13.11;nan;97835.75;5036029;28;20216;-73
2022/11/08 11:19:54;;;;;;;5.93;3.00;;;;;;;13.22;nan;97842.91;5035585;28;20633;-74
2022/11/08 11:22:33;;;;;;;3.70;3.23;;;;;;;13.34;nan;97838.28;5035662;28;20216;-73
2022/11/08 11:25:13;;;;;;;4.73;2.53;;;;;;;13.32;nan;97839.59;5035846;28;20206;-73
2022/11/08 11:27:41;;;;;;;5.33;2.80;;;;;;;13.52;nan;97838.06;5035769;28;20511;-72
2022/11/08 11:30:21;;;;;;;3.57;2.47;;;;;;;13.50;nan;97834.84;5035573;28;20296;-72
2022/11/08 11:32:59;;;;;;;4.60;2.33;;;;;;;13.53;nan;97834.34;5035284;28;20226;-72
2022/11/08 11:35:34;;;;;;;3.87;2.10;;;;;;;13.68;nan;97823.91;5035580;28;20210;-72
2022/11/08 11:38:03;;;;;;;5.00;2.20;;;;;;;13.81;nan;97820.09;5034874;28;20200;-72
2022/11/08 11:40:38;;;;;;;7.40;2.60;;;;;;;14.08;nan;97815.66;5035212;28;20573;-72
2022/11/08 11:43:24;;;;;;;5.77;2.60;;;;;;;14.18;nan;97807.78;5035693;28;20196;-72
2022/11/08 11:45:58;;;;;;;4.03;2.50;;;;;;;14.57;nan;97817.41;5035414;28;20197;-72
2022/11/08 11:48:28;;;;;;;7.10;2.30;;;;;;;14.58;nan;97810.97;5035263;28;20194;-72
2022/11/08 11:50:56;;;;;;;4.70;1.63;;;;;;;14.77;nan;97807.75;5035494;28;20280;-71
2022/11/08 11:53:35;;;;;;;2.13;1.73;;;;;;;14.82;nan;97807.78;5034197;28;20230;-71
2022/11/08 11:56:17;;;;;;;3.03;1.70;;;;;;;15.22;nan;97810.06;5036093;28;20206;-71
2022/11/08 11:58:55;;;;;;;3.23;1.90;;;;;;;15.26;nan;97811.97;5035257;28;20573;-70
2022/11/08 12:01:43;;;;;;;1.80;1.60;;;;;;;15.21;nan;97811.94;5035189;28;20221;-71
2022/11/08 12:04:39;;;;;;;1.77;1.50;;;;;;;15.31;nan;97806.66;5035328;28;20190;-72
2022/11/08 12:07:19;;;;;;;3.37;1.40;;;;;;;15.32;nan;97799.41;5035632;28;20194;-71
2022/11/08 12:10:03;;;;;;;2.60;1.43;;;;;;;15.40;nan;97799.00;5034968;28;20200;-71
2022/11/08 12:12:51;;;;;;;2.90;1.50;;;;;;;15.47;nan;97794.25;5033714;28;20186;-71
2022/11/08 12:15:25;;;;;;;1.90;1.33;;;;;;;15.48;nan;97801.22;5033746;28;20198;-72
2022/11/08 12:18:13;;;;;;;3.07;1.63;;;;;;;15.55;nan;97794.56;5035008;28;20216;-72
2022/11/08 12:21:06;;;;;;;3.60;1.67;;;;;;;15.71;nan;97793.63;5034983;28;20230;-72
2022/11/08 12:23:58;;;;;;;2.60;1.30;;;;;;;15.74;nan;97786.94;5034331;28;20186;-72
2022/11/08 12:26:37;;;;;;;2.07;1.50;;;;;;;15.99;nan;97785.22;5026515;28;20206;-72
2022/11/08 12:29:18;;;;;;;1.33;1.20;;;;;;;15.98;nan;97783.63;5035029;28;20201;-71
2022/11/08 12:31:59;;;;;;;5.23;1.50;;;;;;;15.90;nan;97786.78;5034307;28;20226;-72